Time;durP1;ratioP1;P1;durP2;ratioP2;P2;SDS_P1;SDS_P2;PMS_P1;PMS_P2;Temp;Humidity;BMP_temperature;BMP_pressure;BME280_temperature;BME280_humidity;BME280_pressure;Samples;Min_cycle;Max_cycle;Signal;HPM_P1;HPM_P2
2021/06/13 00:02:06;;;;;;;4.43;2.47;;;20.50;63.20;;;;;;4999249;28;20022;-82
2021/06/13 00:04:32;;;;;;;4.57;2.58;;;20.50;63.30;;;;;;5016029;28;20053;-92
2021/06/13 00:06:58;;;;;;;5.38;3.05;;;20.50;63.50;;;;;;4998990;28;20037;-81
2021/06/13 00:09:24;;;;;;;6.05;2.85;;;20.40;63.70;;;;;;4999241;28;20470;-81
2021/06/13 00:11:50;;;;;;;3.40;2.47;;;20.40;63.70;;;;;;4997418;28;20033;-81
2021/06/13 00:14:18;;;;;;;3.20;2.53;;;20.40;63.80;;;;;;4999410;28;20030;-81
2021/06/13 00:16:44;;;;;;;5.03;2.58;;;20.40;63.60;;;;;;4998680;28;20117;-82
2021/06/13 00:19:10;;;;;;;5.05;2.47;;;20.30;63.70;;;;;;5016518;28;20038;-82
2021/06/13 00:21:36;;;;;;;3.72;2.80;;;20.30;63.70;;;;;;4998446;28;20029;-81
2021/06/13 00:24:02;;;;;;;5.65;2.85;;;20.30;63.30;;;;;;5012236;28;20057;-81
2021/06/13 00:26:28;;;;;;;6.63;2.42;;;20.20;63.30;;;;;;5018341;28;20036;-81
2021/06/13 00:28:53;;;;;;;6.22;2.70;;;20.30;63.20;;;;;;5017930;28;20033;-81
2021/06/13 00:31:19;;;;;;;4.80;2.67;;;20.20;63.40;;;;;;5035810;28;20183;-81
2021/06/13 00:33:45;;;;;;;6.50;2.97;;;20.20;63.40;;;;;;5017785;28;20056;-80
2021/06/13 00:36:11;;;;;;;4.93;2.80;;;20.20;63.50;;;;;;5018023;28;20068;-80
2021/06/13 00:38:37;;;;;;;4.10;2.30;;;20.10;63.50;;;;;;5017429;28;20030;-80
2021/06/13 00:41:03;;;;;;;4.72;2.80;;;20.10;63.60;;;;;;5035366;28;20021;-80
2021/06/13 00:43:29;;;;;;;5.00;2.83;;;20.10;63.80;;;;;;5017714;28;20371;-80
2021/06/13 00:45:54;;;;;;;5.45;2.85;;;20.00;63.90;;;;;;5017327;28;20379;-80
2021/06/13 00:48:20;;;;;;;5.57;2.38;;;20.00;64.10;;;;;;5017746;28;20125;-80
2021/06/13 00:50:48;;;;;;;4.25;2.47;;;20.00;65.20;;;;;;5016987;28;20031;-80
2021/06/13 00:53:14;;;;;;;3.20;2.50;;;19.90;65.10;;;;;;5035420;28;20030;-80
2021/06/13 00:55:41;;;;;;;8.20;2.95;;;19.90;65.50;;;;;;5016972;28;20527;-81
2021/06/13 00:58:07;;;;;;;5.05;2.70;;;19.90;65.30;;;;;;5017230;28;20031;-80
2021/06/13 01:00:34;;;;;;;3.83;2.30;;;19.80;65.70;;;;;;5017547;28;20022;-79
2021/06/13 01:03:02;;;;;;;3.53;2.60;;;19.80;65.50;;;;;;5017019;28;20120;-80
2021/06/13 01:05:29;;;;;;;5.28;2.60;;;19.70;66.10;;;;;;5017079;28;20057;-81
2021/06/13 01:08:01;;;;;;;8.73;2.90;;;19.60;66.60;;;;;;5016867;28;20337;-83
2021/06/13 01:10:51;;;;;;;4.53;2.38;;;19.50;66.60;;;;;;5017607;28;20033;-83
2021/06/13 01:13:21;;;;;;;5.15;2.72;;;19.60;66.80;;;;;;5017773;28;20030;-83
2021/06/13 01:16:00;;;;;;;4.28;2.60;;;19.50;67.10;;;;;;5034846;28;20458;-83
2021/06/13 01:18:47;;;;;;;6.32;2.85;;;19.40;67.10;;;;;;5017537;28;20029;-83
2021/06/13 01:21:24;;;;;;;3.55;2.40;;;19.40;66.80;;;;;;5017746;28;20032;-83
2021/06/13 01:24:18;;;;;;;4.18;2.38;;;19.30;66.70;;;;;;5016706;28;20072;-83
2021/06/13 01:26:59;;;;;;;4.95;2.85;;;19.30;66.10;;;;;;5016852;28;20029;-82
2021/06/13 01:29:34;;;;;;;3.28;2.13;;;19.40;65.70;;;;;;5017328;28;20029;-82
2021/06/13 01:32:06;;;;;;;5.05;2.45;;;19.40;65.20;;;;;;5016785;28;20034;-82
2021/06/13 01:34:43;;;;;;;5.13;2.72;;;19.40;64.50;;;;;;5034740;28;20021;-82
2021/06/13 01:37:20;;;;;;;4.05;2.13;;;19.40;64.40;;;;;;5034588;28;20029;-82
2021/06/13 01:39:50;;;;;;;3.90;2.50;;;19.40;64.40;;;;;;5034036;28;20025;-82
2021/06/13 01:42:17;;;;;;;4.63;2.13;;;19.40;64.30;;;;;;5016838;28;20025;-82
2021/06/13 01:44:45;;;;;;;3.65;2.10;;;19.40;64.70;;;;;;5034099;28;20034;-83
2021/06/13 01:47:12;;;;;;;4.40;2.17;;;19.40;64.40;;;;;;5016706;28;20037;-81
2021/06/13 01:49:40;;;;;;;5.07;2.50;;;19.40;64.70;;;;;;5034445;28;20466;-82
2021/06/13 01:52:08;;;;;;;4.60;2.15;;;19.30;64.50;;;;;;5016856;28;20038;-83
2021/06/13 01:54:34;;;;;;;3.17;2.20;;;19.30;64.90;;;;;;5017100;28;20029;-82
2021/06/13 01:57:00;;;;;;;4.07;2.10;;;19.20;65.70;;;;;;5033868;28;20037;-81
2021/06/13 01:59:27;;;;;;;4.03;2.45;;;19.20;65.40;;;;;;5016688;28;20518;-81
2021/06/13 02:01:57;;;;;;;3.67;2.40;;;19.20;65.40;;;;;;5015894;28;20025;-80
2021/06/13 02:04:25;;;;;;;4.55;2.30;;;19.20;65.40;;;;;;5034246;28;20424;-81
2021/06/13 02:06:56;;;;;;;5.43;2.05;;;19.10;66.30;;;;;;5015983;28;20061;-81
2021/06/13 02:09:23;;;;;;;6.40;2.20;;;19.10;66.90;;;;;;5016498;28;20120;-81
2021/06/13 02:11:50;;;;;;;2.28;2.00;;;19.00;65.50;;;;;;5015977;28;20116;-80
2021/06/13 02:14:21;;;;;;;5.00;2.05;;;19.00;65.40;;;;;;5016550;28;20025;-81
2021/06/13 02:16:48;;;;;;;3.38;2.17;;;19.00;64.80;;;;;;5015883;28;20033;-82
2021/06/13 02:19:18;;;;;;;5.43;2.20;;;19.00;64.80;;;;;;5016342;28;20040;-81
2021/06/13 02:21:46;;;;;;;3.53;1.75;;;19.00;64.50;;;;;;5015680;28;20028;-81
2021/06/13 02:24:12;;;;;;;5.18;2.10;;;19.00;64.70;;;;;;5018425;28;20137;-81
2021/06/13 02:26:40;;;;;;;4.97;1.95;;;19.00;65.30;;;;;;4996519;28;20029;-81
2021/06/13 02:29:08;;;;;;;5.47;2.08;;;18.90;65.40;;;;;;5014062;28;20374;-81
2021/06/13 02:31:34;;;;;;;3.72;1.67;;;18.90;64.30;;;;;;5014004;28;20029;-80
2021/06/13 02:34:02;;;;;;;3.80;2.00;;;18.90;65.10;;;;;;4996169;28;20303;-81
2021/06/13 02:36:29;;;;;;;4.63;1.83;;;18.90;65.50;;;;;;5013742;28;20116;-81
2021/06/13 02:38:55;;;;;;;4.95;2.00;;;18.90;65.10;;;;;;5013411;28;20026;-82
2021/06/13 02:41:22;;;;;;;3.80;2.17;;;18.80;64.40;;;;;;4996584;28;20026;-81
2021/06/13 02:43:48;;;;;;;4.68;1.92;;;18.70;65.00;;;;;;5013478;28;20026;-81
2021/06/13 02:46:14;;;;;;;3.28;1.60;;;18.70;65.40;;;;;;4996488;28;20080;-80
2021/06/13 02:48:40;;;;;;;2.92;1.92;;;18.70;65.70;;;;;;4996467;28;20152;-81
2021/06/13 02:51:05;;;;;;;5.20;2.20;;;18.60;65.10;;;;;;4996020;28;20053;-81
2021/06/13 02:53:50;;;;;;;3.67;1.95;;;18.70;65.10;;;;;;4996568;28;20034;-81
2021/06/13 02:56:36;;;;;;;3.90;1.65;;;18.70;64.70;;;;;;4996320;28;20026;-81
2021/06/13 02:59:07;;;;;;;4.90;2.10;;;18.60;64.50;;;;;;4995650;28;20030;-80
2021/06/13 03:01:33;;;;;;;4.78;1.80;;;18.60;64.80;;;;;;4996421;28;20030;-80
2021/06/13 03:04:01;;;;;;;3.40;2.00;;;18.50;64.80;;;;;;5012981;28;20470;-80
2021/06/13 03:06:30;;;;;;;3.53;1.70;;;18.50;65.50;;;;;;4996360;28;20088;-80
2021/06/13 03:08:56;;;;;;;3.50;1.83;;;18.40;66.50;;;;;;4995719;28;20471;-80
2021/06/13 03:11:23;;;;;;;4.10;2.00;;;18.40;65.50;;;;;;4996068;28;20022;-80
2021/06/13 03:13:50;;;;;;;3.80;1.70;;;18.40;65.50;;;;;;4995638;28;20383;-81
2021/06/13 03:16:17;;;;;;;4.15;2.03;;;18.40;66.00;;;;;;4996162;28;20061;-80
2021/06/13 03:18:47;;;;;;;3.88;1.92;;;18.40;66.50;;;;;;5013323;28;20026;-88
2021/06/13 03:21:13;;;;;;;2.95;1.55;;;18.40;66.90;;;;;;4996441;28;20116;-82
2021/06/13 03:23:41;;;;;;;4.93;1.70;;;18.30;67.50;;;;;;5013609;28;20050;-81
2021/06/13 03:26:08;;;;;;;4.35;1.88;;;18.20;67.30;;;;;;4995515;28;20030;-80
2021/06/13 03:28:35;;;;;;;3.38;2.15;;;18.10;67.80;;;;;;4995991;28;20034;-80
2021/06/13 03:31:02;;;;;;;3.35;1.77;;;18.10;68.40;;;;;;4995477;28;20022;-80
2021/06/13 03:33:30;;;;;;;3.50;1.85;;;18.10;68.40;;;;;;4995988;28;20054;-80
2021/06/13 03:35:57;;;;;;;4.20;2.00;;;18.00;68.50;;;;;;4995445;28;20029;-80
2021/06/13 03:38:26;;;;;;;5.78;1.85;;;18.00;69.00;;;;;;4995898;28;20030;-82
2021/06/13 03:40:52;;;;;;;4.47;2.13;;;18.00;68.90;;;;;;4995739;28;20026;-82
2021/06/13 03:43:20;;;;;;;3.15;1.83;;;17.90;69.00;;;;;;4996361;28;20117;-81
2021/06/13 03:45:48;;;;;;;5.95;2.33;;;17.90;69.90;;;;;;5011895;28;20034;-83
2021/06/13 03:48:15;;;;;;;6.10;2.47;;;17.90;69.20;;;;;;4998336;28;20034;-81
2021/06/13 03:50:45;;;;;;;4.63;2.10;;;17.80;69.30;;;;;;4999631;28;20118;-82
2021/06/13 03:53:12;;;;;;;3.30;2.30;;;17.80;69.90;;;;;;4999484;28;20048;-82
2021/06/13 03:55:38;;;;;;;3.58;2.40;;;17.60;70.80;;;;;;4999410;28;20437;-80
2021/06/13 03:58:06;;;;;;;5.28;2.35;;;17.60;70.90;;;;;;4998642;28;20022;-80
2021/06/13 04:00:33;;;;;;;5.43;2.33;;;17.60;71.20;;;;;;5016551;28;20026;-80
2021/06/13 04:03:00;;;;;;;5.25;2.38;;;17.50;71.80;;;;;;4998471;28;20382;-80
2021/06/13 04:05:26;;;;;;;3.90;2.35;;;17.40;72.30;;;;;;4998752;28;20065;-79
2021/06/13 04:07:52;;;;;;;5.40;2.70;;;17.30;73.00;;;;;;4998447;28;20041;-80
2021/06/13 04:10:19;;;;;;;3.17;2.20;;;17.20;73.50;;;;;;4998867;28;20466;-79
2021/06/13 04:12:47;;;;;;;4.22;2.67;;;17.20;74.00;;;;;;4998861;28;20056;-80
2021/06/13 04:15:14;;;;;;;4.38;2.78;;;17.20;73.90;;;;;;4999033;28;20036;-80
2021/06/13 04:17:41;;;;;;;5.13;2.80;;;17.10;74.10;;;;;;5016108;28;20073;-79
2021/06/13 04:20:10;;;;;;;6.30;2.83;;;17.20;74.30;;;;;;4998223;28;20029;-81
2021/06/13 04:22:38;;;;;;;4.38;2.75;;;17.20;74.20;;;;;;4998421;28;20034;-80
2021/06/13 04:25:06;;;;;;;3.72;2.13;;;17.20;74.10;;;;;;4998547;28;20033;-81
2021/06/13 04:27:34;;;;;;;7.88;2.22;;;17.20;73.50;;;;;;4998823;28;20387;-81
2021/06/13 04:30:00;;;;;;;4.68;2.40;;;17.30;71.80;;;;;;4998317;28;20026;-81
2021/06/13 04:32:26;;;;;;;4.00;2.22;;;17.40;72.00;;;;;;4998631;28;20080;-82
2021/06/13 04:34:52;;;;;;;4.20;2.03;;;17.40;71.60;;;;;;4998320;28;20038;-82
2021/06/13 04:37:17;;;;;;;3.67;2.13;;;17.40;71.10;;;;;;4998829;28;20467;-80
2021/06/13 04:39:43;;;;;;;3.08;1.83;;;17.40;70.70;;;;;;4998436;28;20450;-80
2021/06/13 04:42:10;;;;;;;4.18;2.00;;;17.50;70.80;;;;;;4997821;28;20049;-80
2021/06/13 04:44:37;;;;;;;5.05;2.00;;;17.50;70.20;;;;;;5015676;28;20029;-80
2021/06/13 04:47:04;;;;;;;4.22;1.80;;;17.50;71.70;;;;;;4997681;28;20382;-80
2021/06/13 04:49:30;;;;;;;3.33;1.73;;;17.50;70.50;;;;;;4998501;28;20057;-80
2021/06/13 04:51:58;;;;;;;4.07;2.10;;;17.60;70.40;;;;;;4997869;28;20454;-80
2021/06/13 04:54:40;;;;;;;4.60;2.00;;;17.50;70.00;;;;;;4998041;28;20054;-81
2021/06/13 04:57:35;;;;;;;3.28;1.80;;;17.50;69.90;;;;;;4981701;28;20030;-81
2021/06/13 05:00:01;;;;;;;3.15;1.80;;;17.60;70.40;;;;;;5000456;28;20026;-81
2021/06/13 05:02:26;;;;;;;3.67;1.95;;;17.60;70.60;;;;;;4998102;28;20470;-81
2021/06/13 05:04:55;;;;;;;6.03;2.17;;;17.60;70.40;;;;;;4997657;28;20022;-81
2021/06/13 05:07:22;;;;;;;2.55;1.88;;;17.70;70.00;;;;;;4998030;28;20040;-81
2021/06/13 05:09:48;;;;;;;4.32;1.95;;;17.60;69.40;;;;;;5015396;28;20371;-81
2021/06/13 05:12:13;;;;;;;5.05;1.50;;;17.70;69.40;;;;;;4997641;28;20033;-81
2021/06/13 05:14:39;;;;;;;6.03;1.95;;;17.60;69.90;;;;;;4998169;28;20064;-81
2021/06/13 05:17:05;;;;;;;7.80;1.88;;;17.70;70.10;;;;;;5015060;28;20030;-82
2021/06/13 05:19:31;;;;;;;3.22;1.88;;;17.70;69.50;;;;;;4998145;28;20025;-82
2021/06/13 05:21:57;;;;;;;5.43;1.90;;;17.70;69.90;;;;;;4997672;28;20367;-82
2021/06/13 05:24:22;;;;;;;5.15;1.88;;;17.70;69.80;;;;;;5014133;28;20041;-80
2021/06/13 05:26:48;;;;;;;7.13;2.08;;;17.70;69.50;;;;;;5017013;28;20057;-80
2021/06/13 05:29:13;;;;;;;3.55;1.80;;;17.70;69.40;;;;;;5016638;28;20501;-81
2021/06/13 05:31:39;;;;;;;2.65;1.70;;;17.80;69.60;;;;;;5017303;28;20481;-81
2021/06/13 05:34:05;;;;;;;3.85;1.83;;;17.80;69.70;;;;;;5034253;28;20030;-81
2021/06/13 05:36:30;;;;;;;4.47;1.98;;;17.80;70.50;;;;;;5017064;28;20045;-80
2021/06/13 05:38:56;;;;;;;6.03;1.98;;;17.80;70.10;;;;;;5016690;28;20032;-81
2021/06/13 05:41:22;;;;;;;4.18;1.73;;;17.80;68.80;;;;;;5050020;28;20021;-80
2021/06/13 05:43:48;;;;;;;4.68;2.28;;;17.80;69.30;;;;;;5049787;28;20033;-80
2021/06/13 05:46:13;;;;;;;3.47;1.88;;;17.80;68.90;;;;;;5016316;28;20064;-80
2021/06/13 05:48:39;;;;;;;5.00;2.13;;;17.80;69.20;;;;;;5017024;28;20029;-80
2021/06/13 05:51:06;;;;;;;4.45;2.05;;;17.90;69.20;;;;;;5049480;28;20180;-80
2021/06/13 05:53:31;;;;;;;3.95;1.83;;;17.90;69.20;;;;;;5049716;28;20033;-80
2021/06/13 05:55:57;;;;;;;4.97;2.10;;;17.90;69.50;;;;;;5049502;28;20036;-81
2021/06/13 05:58:23;;;;;;;5.30;2.10;;;17.90;70.00;;;;;;5016884;28;20025;-81
2021/06/13 06:00:49;;;;;;;4.85;2.10;;;18.00;69.60;;;;;;5016842;28;20029;-81
2021/06/13 06:03:14;;;;;;;4.75;2.13;;;18.00;69.80;;;;;;5016204;28;20378;-81
2021/06/13 06:05:41;;;;;;;4.78;2.13;;;18.00;69.90;;;;;;5034140;28;20470;-80
2021/06/13 06:08:07;;;;;;;7.57;2.30;;;18.00;69.20;;;;;;5016432;28;20124;-81
2021/06/13 06:10:34;;;;;;;8.85;1.98;;;18.00;69.10;;;;;;5015864;28;20446;-81
2021/06/13 06:13:03;;;;;;;3.92;1.92;;;18.10;69.70;;;;;;5015959;28;20536;-81
2021/06/13 06:15:31;;;;;;;6.10;2.45;;;18.00;68.80;;;;;;5016580;28;20083;-81
2021/06/13 06:17:57;;;;;;;3.65;2.00;;;18.00;68.10;;;;;;5016171;28;20382;-81
2021/06/13 06:20:26;;;;;;;5.07;2.30;;;18.10;67.90;;;;;;5016901;28;20021;-82
2021/06/13 06:22:52;;;;;;;6.65;2.25;;;18.10;68.40;;;;;;5016192;28;20413;-82
2021/06/13 06:25:19;;;;;;;3.70;2.10;;;18.10;67.80;;;;;;5015884;28;20124;-82
2021/06/13 06:27:45;;;;;;;6.00;2.03;;;18.20;67.90;;;;;;5016327;28;20048;-82
2021/06/13 06:30:13;;;;;;;6.20;2.30;;;18.20;68.40;;;;;;5015987;28;20029;-82
2021/06/13 06:32:39;;;;;;;5.03;1.98;;;18.10;68.10;;;;;;5016346;28;20053;-81
2021/06/13 06:35:06;;;;;;;6.15;2.20;;;18.10;68.00;;;;;;5015929;28;20128;-83
2021/06/13 06:37:32;;;;;;;4.82;2.17;;;18.20;68.30;;;;;;5033600;28;20037;-81
2021/06/13 06:39:58;;;;;;;5.07;2.53;;;18.10;67.80;;;;;;5015922;28;20021;-82
2021/06/13 06:42:24;;;;;;;5.20;2.00;;;18.20;68.20;;;;;;5016198;28;20029;-81
2021/06/13 06:44:50;;;;;;;5.65;2.40;;;18.10;67.90;;;;;;5016208;28;20199;-80
2021/06/13 06:47:15;;;;;;;3.85;2.10;;;18.20;68.50;;;;;;5015468;28;20048;-81
2021/06/13 06:49:41;;;;;;;3.80;2.00;;;18.20;68.50;;;;;;5016120;28;20389;-81
2021/06/13 06:52:07;;;;;;;3.72;1.90;;;18.30;68.80;;;;;;5015414;28;20033;-81
2021/06/13 06:54:33;;;;;;;3.47;2.15;;;18.40;69.20;;;;;;5049565;28;20034;-81
2021/06/13 06:56:58;;;;;;;5.53;2.38;;;18.40;68.20;;;;;;5048638;28;20034;-82
2021/06/13 06:59:24;;;;;;;4.05;2.70;;;18.40;68.40;;;;;;5033697;28;20052;-81
2021/06/13 07:01:50;;;;;;;3.78;1.80;;;18.40;67.70;;;;;;5016289;28;20029;-81
2021/06/13 07:04:15;;;;;;;5.82;2.03;;;18.40;67.00;;;;;;5015356;28;20030;-81
2021/06/13 07:06:41;;;;;;;6.18;2.60;;;18.40;67.50;;;;;;5015920;28;20466;-81
2021/06/13 07:09:07;;;;;;;7.03;2.42;;;18.50;66.90;;;;;;5048421;28;20029;-82
2021/06/13 07:11:32;;;;;;;4.05;1.98;;;18.40;66.30;;;;;;5015850;28;20528;-81
2021/06/13 07:13:58;;;;;;;5.88;2.20;;;18.40;67.20;;;;;;5015435;28;20124;-85
2021/06/13 07:16:24;;;;;;;6.22;2.20;;;18.40;67.10;;;;;;5015979;28;20079;-83
2021/06/13 07:18:49;;;;;;;5.38;2.00;;;18.50;66.90;;;;;;5016074;28;20120;-82
2021/06/13 07:21:15;;;;;;;5.25;2.15;;;18.50;67.50;;;;;;5016481;28;20439;-82
2021/06/13 07:23:41;;;;;;;5.50;2.20;;;18.50;67.00;;;;;;5019735;28;20077;-82
2021/06/13 07:26:07;;;;;;;4.90;2.00;;;18.50;66.40;;;;;;5019225;28;20034;-83
2021/06/13 07:28:34;;;;;;;4.80;2.00;;;18.50;66.50;;;;;;5019641;28;20040;-82
2021/06/13 07:31:01;;;;;;;5.45;2.22;;;18.50;66.40;;;;;;5019145;28;20053;-83
2021/06/13 07:33:28;;;;;;;4.63;2.15;;;18.50;66.40;;;;;;5019792;28;20112;-83
2021/06/13 07:35:54;;;;;;;4.90;1.98;;;18.50;66.50;;;;;;5019721;28;20072;-83
2021/06/13 07:38:20;;;;;;;4.53;2.60;;;18.60;66.40;;;;;;5018676;28;20059;-81
2021/06/13 07:40:46;;;;;;;7.75;2.50;;;18.60;65.80;;;;;;5052362;28;20109;-82
2021/06/13 07:43:12;;;;;;;3.75;2.17;;;18.60;66.50;;;;;;5036590;28;20022;-83
2021/06/13 07:45:37;;;;;;;3.47;1.92;;;18.60;66.50;;;;;;5019204;28;20037;-82
2021/06/13 07:48:08;;;;;;;3.47;2.40;;;18.60;66.20;;;;;;5018755;28;20481;-83
2021/06/13 07:50:35;;;;;;;4.70;2.25;;;18.70;66.30;;;;;;5019469;28;20116;-82
2021/06/13 07:53:00;;;;;;;5.75;3.00;;;18.70;65.90;;;;;;5018634;28;20042;-83
2021/06/13 07:55:26;;;;;;;4.18;2.50;;;18.70;66.00;;;;;;5019032;28;20040;-82
2021/06/13 07:57:52;;;;;;;4.18;2.30;;;18.70;65.80;;;;;;5018871;28;20111;-81
2021/06/13 08:00:20;;;;;;;4.47;2.55;;;18.70;65.60;;;;;;5051643;28;20029;-82
2021/06/13 08:02:46;;;;;;;5.40;2.15;;;18.70;65.70;;;;;;5019213;28;20036;-82
2021/06/13 08:05:15;;;;;;;11.50;2.40;;;18.70;65.40;;;;;;5035909;28;20032;-82
2021/06/13 08:07:41;;;;;;;4.22;2.00;;;18.70;65.10;;;;;;5018736;28;20378;-81
2021/06/13 08:10:09;;;;;;;7.38;3.08;;;18.80;65.50;;;;;;5018156;28;20021;-81
2021/06/13 08:12:35;;;;;;;5.93;2.25;;;18.80;65.00;;;;;;5018526;28;20028;-81
2021/06/13 08:15:01;;;;;;;5.03;2.22;;;18.80;65.50;;;;;;5018487;28;20516;-90
2021/06/13 08:17:27;;;;;;;5.60;2.10;;;18.80;65.50;;;;;;5018689;28;20029;-82
2021/06/13 08:19:53;;;;;;;4.18;2.17;;;18.90;66.30;;;;;;5051985;28;20385;-82
2021/06/13 08:22:18;;;;;;;4.15;1.98;;;18.90;65.50;;;;;;5017881;28;20060;-82
2021/06/13 08:24:44;;;;;;;3.30;2.47;;;18.90;64.80;;;;;;5018036;28;20054;-83
2021/06/13 08:27:10;;;;;;;5.15;2.03;;;19.00;65.00;;;;;;5043006;28;20033;-79
2021/06/13 08:29:35;;;;;;;4.15;1.92;;;19.00;64.80;;;;;;5055008;28;20421;-80
2021/06/13 08:32:01;;;;;;;6.07;1.83;;;19.00;63.90;;;;;;5053792;28;20025;-81
2021/06/13 08:34:27;;;;;;;5.55;2.03;;;19.00;64.00;;;;;;5054361;28;20036;-80
2021/06/13 08:36:53;;;;;;;6.40;2.20;;;19.00;64.30;;;;;;5036653;28;20025;-80
2021/06/13 08:39:19;;;;;;;2.65;1.70;;;19.00;64.70;;;;;;5036881;28;20032;-79
2021/06/13 08:41:45;;;;;;;4.55;1.67;;;19.10;64.50;;;;;;5055053;28;20104;-82
2021/06/13 08:44:11;;;;;;;4.38;1.63;;;19.10;63.70;;;;;;5037379;28;20485;-83
2021/06/13 08:46:38;;;;;;;5.30;2.03;;;19.10;63.20;;;;;;5037688;28;20087;-79
2021/06/13 08:49:04;;;;;;;3.55;1.80;;;19.10;62.90;;;;;;5029672;28;20469;-81
2021/06/13 08:51:30;;;;;;;6.75;1.92;;;19.10;62.50;;;;;;5033852;28;20043;-82
2021/06/13 08:53:56;;;;;;;4.90;1.98;;;19.10;62.10;;;;;;5017764;28;20461;-85
2021/06/13 08:56:22;;;;;;;4.68;1.90;;;19.10;62.60;;;;;;5017230;28;20026;-85
2021/06/13 08:58:50;;;;;;;4.47;1.65;;;19.20;62.10;;;;;;5031589;28;20385;-82
2021/06/13 09:01:15;;;;;;;5.35;1.80;;;19.20;61.70;;;;;;5018854;28;20028;-80
2021/06/13 09:03:43;;;;;;;2.42;1.67;;;19.10;61.40;;;;;;5054162;28;20369;-85
2021/06/13 09:06:11;;;;;;;3.88;1.85;;;19.10;61.80;;;;;;5054501;28;20032;-85
2021/06/13 09:08:41;;;;;;;4.82;1.92;;;19.10;62.40;;;;;;5034038;28;20474;-85
2021/06/13 09:11:09;;;;;;;5.63;1.83;;;19.20;60.80;;;;;;5035627;28;20068;-86
2021/06/13 09:13:37;;;;;;;5.70;1.90;;;19.20;60.50;;;;;;5036218;28;20028;-80
2021/06/13 09:16:06;;;;;;;2.88;1.85;;;19.20;60.60;;;;;;5054358;28;20029;-83
2021/06/13 09:18:37;;;;;;;3.42;1.63;;;19.20;61.60;;;;;;5022339;28;20108;-79
2021/06/13 09:21:04;;;;;;;;;;;19.30;61.10;;;;;;5050030;28;20485;-84
2021/06/13 09:23:33;;;;;;;5.25;1.77;;;19.30;59.80;;;;;;5021799;28;19971;-81
2021/06/13 09:26:17;;;;;;;3.35;1.80;;;19.30;60.00;;;;;;5036525;28;20037;-81
2021/06/13 09:28:46;;;;;;;4.72;1.67;;;19.30;58.60;;;;;;5036600;28;20061;-86
2021/06/13 09:31:27;;;;;;;7.20;2.03;;;19.30;59.10;;;;;;5053371;28;20021;-81
2021/06/13 09:33:55;;;;;;;3.92;1.80;;;19.40;58.60;;;;;;5035985;28;20044;-81
2021/06/13 09:36:23;;;;;;;4.03;1.92;;;19.40;59.00;;;;;;5035420;28;20064;-80
2021/06/13 09:38:53;;;;;;;2.97;1.85;;;19.40;59.30;;;;;;5036109;28;20025;-85
2021/06/13 09:41:22;;;;;;;5.05;1.63;;;19.50;60.00;;;;;;5053614;28;20032;-81
2021/06/13 09:43:51;;;;;;;4.78;1.67;;;19.50;60.00;;;;;;5053178;28;20029;-82
2021/06/13 09:46:23;;;;;;;3.35;1.75;;;19.50;59.20;;;;;;5035354;28;20119;-82
2021/06/13 09:49:02;;;;;;;4.00;1.45;;;19.60;59.80;;;;;;5008773;28;20041;-82
2021/06/13 09:51:33;;;;;;;4.15;1.60;;;19.60;59.10;;;;;;4983144;28;20030;-83
2021/06/13 09:54:01;;;;;;;2.40;1.70;;;19.60;58.90;;;;;;4986773;28;20574;-83
2021/06/13 09:56:32;;;;;;;6.13;1.67;;;19.60;57.50;;;;;;5001337;28;20038;-83
2021/06/13 09:58:59;;;;;;;6.03;1.85;;;19.70;58.20;;;;;;4961553;28;20122;-82
2021/06/13 10:01:37;;;;;;;3.83;1.75;;;19.70;57.80;;;;;;4990291;28;20593;-83
2021/06/13 10:04:04;;;;;;;4.38;1.88;;;19.70;58.10;;;;;;4986413;28;20033;-82
2021/06/13 10:06:35;;;;;;;2.85;1.65;;;19.80;58.60;;;;;;4982625;28;20026;-82
2021/06/13 10:09:04;;;;;;;2.20;1.45;;;19.80;57.50;;;;;;5009069;28;20529;-83
2021/06/13 10:11:30;;;;;;;4.40;1.73;;;19.80;57.50;;;;;;4976196;28;20034;-82
2021/06/13 10:13:59;;;;;;;4.22;1.60;;;19.90;56.30;;;;;;5001334;28;20045;-84
2021/06/13 10:16:31;;;;;;;2.17;1.40;;;19.90;54.60;;;;;;4995258;28;20037;-83
2021/06/13 10:19:06;;;;;;;2.28;1.70;;;19.80;54.00;;;;;;4987370;28;20044;-82
2021/06/13 10:21:35;;;;;;;2.55;1.40;;;19.90;55.30;;;;;;5035786;28;20028;-82
2021/06/13 10:24:04;;;;;;;3.83;1.88;;;19.90;55.20;;;;;;5035478;28;20138;-82
2021/06/13 10:26:30;;;;;;;2.85;1.58;;;20.00;54.80;;;;;;5052741;28;20028;-83
2021/06/13 10:28:56;;;;;;;4.88;1.50;;;20.00;53.50;;;;;;5035544;28;20120;-83
2021/06/13 10:31:22;;;;;;;2.63;1.17;;;20.00;53.10;;;;;;5051113;28;20508;-81
2021/06/13 10:33:48;;;;;;;4.95;1.50;;;20.00;51.70;;;;;;5053825;28;20021;-82
2021/06/13 10:36:15;;;;;;;2.75;1.10;;;20.00;52.40;;;;;;5035401;28;20033;-83
2021/06/13 10:38:42;;;;;;;3.28;1.60;;;20.00;52.40;;;;;;5036097;28;20028;-84
2021/06/13 10:41:08;;;;;;;3.55;1.50;;;20.00;52.00;;;;;;5052986;28;20033;-86
2021/06/13 10:43:34;;;;;;;3.90;1.75;;;20.00;52.80;;;;;;5054718;28;20025;-83
2021/06/13 10:46:12;;;;;;;3.40;1.35;;;20.10;52.40;;;;;;5035965;28;20083;-82
2021/06/13 10:48:42;;;;;;;4.50;1.30;;;20.10;51.40;;;;;;5035849;28;20454;-81
2021/06/13 10:51:35;;;;;;;4.30;1.20;;;20.10;51.40;;;;;;5035426;28;20032;-84
2021/06/13 10:54:31;;;;;;;4.13;1.60;;;20.10;51.80;;;;;;5053882;28;20037;-87
2021/06/13 10:57:05;;;;;;;3.15;1.17;;;20.20;50.90;;;;;;5031575;28;20034;-86
2021/06/13 10:59:36;;;;;;;2.00;1.30;;;20.20;49.80;;;;;;5058413;28;20033;-81
2021/06/13 11:02:19;;;;;;;4.57;1.10;;;20.30;50.40;;;;;;5056760;28;20094;-83
2021/06/13 11:04:57;;;;;;;13.48;7.18;;;20.30;50.60;;;;;;5040436;28;20029;-83
2021/06/13 11:10:05;;;;;;;3.25;1.67;;;20.40;49.80;;;;;;5057390;28;20106;-83
2021/06/13 11:12:48;;;;;;;5.10;1.30;;;20.40;51.60;;;;;;5056405;28;20033;-82
2021/06/13 11:15:22;;;;;;;2.63;1.30;;;20.40;50.00;;;;;;5056820;28;20020;-83
2021/06/13 11:18:01;;;;;;;2.70;1.10;;;20.50;50.60;;;;;;5050821;28;20032;-83
2021/06/13 11:23:04;;;;;;;1.70;1.00;;;20.60;49.30;;;;;;5056484;28;20089;-82
2021/06/13 11:25:31;;;;;;;1.67;1.02;;;20.60;46.60;;;;;;5057012;28;20025;-85
2021/06/13 11:28:11;;;;;;;2.15;1.02;;;20.60;47.70;;;;;;5057554;28;20029;-84
2021/06/13 11:30:40;;;;;;;0.90;0.85;;;20.60;47.00;;;;;;5039699;28;20029;-84
2021/06/13 11:33:07;;;;;;;2.03;0.73;;;20.70;47.70;;;;;;5057058;28;20020;-85
2021/06/13 11:35:53;;;;;;;1.40;0.93;;;20.70;47.70;;;;;;5039429;28;20127;-83
2021/06/13 11:38:18;;;;;;;1.45;0.80;;;20.80;46.90;;;;;;5055743;28;20032;-83
2021/06/13 11:41:04;;;;;;;1.30;1.00;;;20.90;46.30;;;;;;5055910;28;20033;-83
2021/06/13 11:43:42;;;;;;;1.65;0.90;;;20.90;47.60;;;;;;5038512;28;20178;-83
2021/06/13 11:46:10;;;;;;;2.72;1.13;;;21.00;45.00;;;;;;5039984;28;20123;-83
2021/06/13 11:48:37;;;;;;;1.83;0.80;;;21.00;46.60;;;;;;5039826;28;20029;-84
2021/06/13 11:51:17;;;;;;;2.40;1.00;;;21.00;45.50;;;;;;5039741;28;20106;-84
2021/06/13 11:53:52;;;;;;;1.40;0.90;;;21.20;46.80;;;;;;5039357;28;20111;-84
2021/06/13 11:56:36;;;;;;;3.15;1.08;;;21.20;48.30;;;;;;5052983;28;20075;-84
2021/06/13 11:59:18;;;;;;;3.10;0.95;;;21.20;48.50;;;;;;5021100;28;20509;-86
2021/06/13 12:01:52;;;;;;;1.42;0.55;;;21.30;44.80;;;;;;5038862;28;20025;-78
2021/06/13 12:04:17;;;;;;;1.95;0.50;;;21.40;43.90;;;;;;5037816;28;20083;-79
2021/06/13 12:06:44;;;;;;;0.80;0.70;;;21.40;39.10;;;;;;5038607;28;20477;-79
2021/06/13 12:09:12;;;;;;;0.93;0.80;;;21.40;39.20;;;;;;5036837;28;20087;-82
2021/06/13 12:11:39;;;;;;;2.55;0.82;;;21.40;42.00;;;;;;5037716;28;20025;-79
2021/06/13 12:14:41;;;;;;;3.28;0.85;;;21.50;43.20;;;;;;5054758;28;20112;-79
2021/06/13 12:17:14;;;;;;;1.92;0.70;;;21.50;43.80;;;;;;5041793;28;20033;-85
2021/06/13 12:19:49;;;;;;;1.63;0.90;;;21.60;42.90;;;;;;5055515;28;20025;-80
2021/06/13 12:22:22;;;;;;;2.10;1.00;;;21.70;41.40;;;;;;5037475;28;20060;-81
2021/06/13 12:27:22;;;;;;;1.73;0.90;;;21.70;41.30;;;;;;5055016;28;20037;-80
2021/06/13 12:27:41;;;;;;;3.88;0.90;;;21.80;43.00;;;;;;5055535;28;20124;-81
2021/06/13 12:30:14;;;;;;;1.75;1.08;;;21.90;43.90;;;;;;5037685;28;20029;-85
2021/06/13 12:32:42;;;;;;;2.40;1.00;;;22.10;45.50;;;;;;5055581;28;20029;-81
2021/06/13 12:35:13;;;;;;;3.75;1.08;;;22.20;47.70;;;;;;5050871;28;20029;-82
2021/06/13 12:37:54;;;;;;;3.33;0.80;;;22.30;44.70;;;;;;5035669;28;20108;-80
2021/06/13 12:40:19;;;;;;;1.90;0.93;;;22.40;44.20;;;;;;5030100;28;20033;-81
2021/06/13 12:42:46;;;;;;;2.08;1.00;;;22.50;43.20;;;;;;5036818;28;20531;-80
2021/06/13 12:45:14;;;;;;;2.10;1.05;;;22.60;42.20;;;;;;5037150;28;20090;-82
2021/06/13 12:47:43;;;;;;;3.08;1.15;;;22.80;41.90;;;;;;5037911;28;20037;-82
2021/06/13 12:50:10;;;;;;;3.80;0.93;;;23.00;43.60;;;;;;5036890;28;20029;-86
2021/06/13 12:52:46;;;;;;;2.13;1.00;;;23.10;42.30;;;;;;5037100;28;20107;-80
2021/06/13 12:55:12;;;;;;;1.55;1.02;;;23.20;41.00;;;;;;5037025;28;20025;-81
2021/06/13 12:57:40;;;;;;;2.45;0.90;;;23.40;41.20;;;;;;5036646;28;20031;-81
2021/06/13 13:00:09;;;;;;;2.47;0.90;;;23.50;40.60;;;;;;5037419;28;20031;-81
2021/06/13 13:02:34;;;;;;;1.77;1.05;;;23.60;40.40;;;;;;5036888;28;20025;-80